Pays
Station

 

Conditions  météo  pour  Ho Chi Minh  -  Viet Nam    Viet Nam

  
24 °C
    
 
 

METAR pour Ho Chi Minh :

VVTS 212230Z VRB03KT 6000 FEW017 SCT050 24/21 Q1012 NOSIG

 

Voici le bulletin pour Ho Chi Minh - Viet Nam.
 
Le bulletin a été fait il y a 10 minutes, à 22:30 UTC .
Le vent soufflait à la vitesse de 1.5 mètres par seconde de direction variable.
 
La température était de 24 °C, avec un point de rosée à 21 °C.
La température ressentie était de 24 °C.
 
La pression atmosphérique était de 1012 hPa.
L'humidité relative était de 83.3%.
 
Il y avait 1 à 2/8ème de nébulosité à une hauteur de 518 mètres et 3 à 4/8ème de nébulosité à une hauteur de 1524 mètres.
 
La visibilité globale était de 6.0 kilomètres.
 

 
 
 

Pays :   A   B   C   D   E   F   G   H   I   J   K   L   M   N   O   P   Q   R   S   T   U   V   W   Y   Z

 

Partenaires :  Info Météo avec Met'info
Météo Marine avec MeteoMarine.net
Infos Site  |  Infos Légales  |  Crédits  |  Confidentialité
Contactez-nous  |  Ajouter aux favoris
© 2013-2019 METAR - Tous droits réservés